createdAt,value
2022-12-14T00:01:49.158Z,15.32
2022-12-14T00:04:18.141Z,14.70
2022-12-14T00:06:46.441Z,14.45
2022-12-14T00:09:14.766Z,13.60
2022-12-14T00:11:43.118Z,14.18
2022-12-14T00:14:12.797Z,12.70
2022-12-14T00:16:41.180Z,12.80
2022-12-14T00:19:09.864Z,13.52
2022-12-14T00:21:38.087Z,13.52
2022-12-14T00:24:06.638Z,13.52
2022-12-14T00:26:34.993Z,13.15
2022-12-14T00:29:04.084Z,13.38
2022-12-14T00:31:33.848Z,13.40
2022-12-14T00:34:02.266Z,12.57
2022-12-14T00:36:31.575Z,13.27
2022-12-14T00:39:00.336Z,13.20
2022-12-14T00:41:28.680Z,13.40
2022-12-14T00:43:57.035Z,13.70
2022-12-14T00:46:25.462Z,13.70
2022-12-14T00:48:55.156Z,13.23
2022-12-14T00:51:23.467Z,13.80
2022-12-14T00:53:51.735Z,13.68
2022-12-14T00:56:20.021Z,12.65
2022-12-14T00:58:52.517Z,13.18
2022-12-14T01:01:21.621Z,13.20
2022-12-14T01:03:50.428Z,13.15
2022-12-14T01:06:21.349Z,11.80
2022-12-14T01:08:49.922Z,12.55
2022-12-14T01:11:18.278Z,11.90
2022-12-14T01:13:49.284Z,11.90
2022-12-14T01:16:18.149Z,12.75
2022-12-14T01:18:46.645Z,12.77
2022-12-14T01:21:16.143Z,12.38
2022-12-14T01:23:46.199Z,11.85
2022-12-14T01:26:15.004Z,11.70
2022-12-14T01:28:43.505Z,12.93
2022-12-14T01:31:12.738Z,10.93
2022-12-14T01:33:41.296Z,12.80
2022-12-14T01:36:10.556Z,12.35
2022-12-14T01:38:39.163Z,11.45
2022-12-14T01:41:09.395Z,11.15
2022-12-14T01:43:48.775Z,12.05
2022-12-14T01:46:19.725Z,12.10
2022-12-14T01:48:49.967Z,10.45
2022-12-14T01:51:18.318Z,10.40
2022-12-14T01:53:46.931Z,11.45
2022-12-14T01:56:17.330Z,10.70
2022-12-14T01:58:45.634Z,10.95
2022-12-14T02:01:14.045Z,11.20
2022-12-14T02:03:43.834Z,10.82
2022-12-14T02:06:13.939Z,11.60
2022-12-14T02:08:44.431Z,12.00
2022-12-14T02:11:12.812Z,11.30
2022-12-14T02:13:43.295Z,12.05
2022-12-14T02:16:13.484Z,12.05
2022-12-14T02:18:41.864Z,12.38
2022-12-14T02:21:18.643Z,11.55
2022-12-14T02:24:07.742Z,11.90
2022-12-14T02:26:43.474Z,12.30
2022-12-14T02:29:42.009Z,12.50
2022-12-14T02:32:21.346Z,12.27
2022-12-14T02:34:56.015Z,13.45
2022-12-14T02:37:27.351Z,13.20
2022-12-14T02:40:00.347Z,12.23
2022-12-14T02:42:36.141Z,12.57
2022-12-14T02:45:09.876Z,13.00
2022-12-14T02:47:41.740Z,14.20
2022-12-14T02:50:12.969Z,13.93
2022-12-14T02:52:42.787Z,13.40
2022-12-14T02:55:16.136Z,13.55
2022-12-14T02:57:47.530Z,13.60
2022-12-14T03:00:16.224Z,13.43
2022-12-14T03:02:47.303Z,13.10
2022-12-14T03:05:15.716Z,14.00
2022-12-14T03:07:48.870Z,13.88
2022-12-14T03:10:25.820Z,13.65
2022-12-14T03:12:56.501Z,13.80
2022-12-14T03:15:25.471Z,13.77
2022-12-14T03:17:57.325Z,13.35
2022-12-14T03:20:26.745Z,13.90
2022-12-14T03:22:56.911Z,13.85
2022-12-14T03:25:28.230Z,14.10
2022-12-14T03:27:59.507Z,13.05
2022-12-14T03:30:58.310Z,13.95
2022-12-14T03:33:20.535Z,13.55
2022-12-14T03:35:51.888Z,12.82
2022-12-14T03:38:21.974Z,13.70
2022-12-14T03:40:54.603Z,14.52
2022-12-14T03:43:27.817Z,13.10
2022-12-14T03:45:59.138Z,13.82
2022-12-14T03:48:32.622Z,14.90
2022-12-14T03:51:04.581Z,13.70
2022-12-14T03:53:35.869Z,13.57
2022-12-14T03:56:07.524Z,13.70
2022-12-14T03:58:38.628Z,13.75
2022-12-14T04:01:09.302Z,13.02
2022-12-14T04:03:44.557Z,13.35
2022-12-14T04:06:18.060Z,15.23
2022-12-14T04:08:50.070Z,14.32
2022-12-14T04:11:36.299Z,14.15
2022-12-14T04:14:24.344Z,14.05
2022-12-14T04:17:11.431Z,13.77
2022-12-14T04:19:43.145Z,13.35
2022-12-14T04:22:14.124Z,13.75
2022-12-14T04:25:02.712Z,14.60
2022-12-14T04:27:34.890Z,14.23
2022-12-14T04:30:02.548Z,13.67
2022-12-14T04:32:33.178Z,13.95
2022-12-14T04:35:06.030Z,13.15
2022-12-14T04:37:36.648Z,13.45
2022-12-14T04:40:08.016Z,14.07
2022-12-14T04:42:37.604Z,13.95
2022-12-14T04:45:08.744Z,13.87
2022-12-14T04:47:38.375Z,12.98
2022-12-14T04:50:10.687Z,14.30
2022-12-14T04:52:41.501Z,13.95
2022-12-14T04:55:12.933Z,13.18
2022-12-14T04:57:42.992Z,13.20
2022-12-14T05:00:12.252Z,13.30
2022-12-14T05:02:46.849Z,13.07
2022-12-14T05:05:18.312Z,13.13
2022-12-14T05:07:48.838Z,13.05
2022-12-14T05:10:19.265Z,13.27
2022-12-14T05:12:50.532Z,13.25
2022-12-14T05:15:23.403Z,13.30
2022-12-14T05:17:51.888Z,14.18
2022-12-14T05:20:22.243Z,12.80
2022-12-14T05:22:50.750Z,13.05
2022-12-14T05:25:18.992Z,13.80
2022-12-14T05:27:47.284Z,12.90
2022-12-14T05:30:15.718Z,13.13
2022-12-14T05:32:44.049Z,13.50
2022-12-14T05:35:13.821Z,13.80
2022-12-14T05:37:43.843Z,12.82
2022-12-14T05:40:13.003Z,12.50
2022-12-14T05:42:45.428Z,14.25
2022-12-14T05:45:15.874Z,12.88
2022-12-14T05:47:44.125Z,13.00
2022-12-14T05:50:12.393Z,12.02
2022-12-14T05:52:40.702Z,13.18
2022-12-14T05:55:11.159Z,12.85
2022-12-14T05:57:39.421Z,13.20
2022-12-14T06:00:08.611Z,12.75
2022-12-14T06:02:36.957Z,13.88
2022-12-14T06:05:05.372Z,12.80
2022-12-14T06:07:33.617Z,12.18
2022-12-14T06:10:01.971Z,11.48
2022-12-14T06:12:32.408Z,13.32
2022-12-14T06:15:00.697Z,12.30
2022-12-14T06:17:29.051Z,12.15
2022-12-14T06:19:57.429Z,11.90
2022-12-14T06:22:26.516Z,11.70
2022-12-14T06:24:54.790Z,11.37
2022-12-14T06:27:23.048Z,11.52
2022-12-14T06:29:52.681Z,12.67
2022-12-14T06:32:21.052Z,12.25
2022-12-14T06:34:49.328Z,11.80
2022-12-14T06:37:17.568Z,12.77
2022-12-14T06:39:49.693Z,12.35
2022-12-14T06:42:20.943Z,11.35
2022-12-14T06:44:49.201Z,11.00
2022-12-14T06:47:18.853Z,10.98
2022-12-14T06:49:47.143Z,10.85
2022-12-14T06:52:20.792Z,11.07
2022-12-14T06:54:51.750Z,11.35
2022-12-14T06:57:20.218Z,11.23
2022-12-14T06:59:48.554Z,10.30
2022-12-14T07:02:17.024Z,10.95
2022-12-14T07:04:46.765Z,11.00
2022-12-14T07:07:15.116Z,11.90
2022-12-14T07:09:43.397Z,11.30
2022-12-14T07:12:11.631Z,11.27
2022-12-14T07:14:39.937Z,11.90
2022-12-14T07:17:08.354Z,11.95
2022-12-14T07:19:36.781Z,10.60
2022-12-14T07:22:06.458Z,10.60
2022-12-14T07:24:34.788Z,11.50
2022-12-14T07:27:03.099Z,11.05
2022-12-14T07:29:34.781Z,11.43
2022-12-14T07:32:03.394Z,10.32
2022-12-14T07:34:31.721Z,11.05
2022-12-14T07:37:00.037Z,11.63
2022-12-14T07:39:29.816Z,11.23
2022-12-14T07:41:58.065Z,10.40
2022-12-14T07:44:26.365Z,11.40
2022-12-14T07:46:55.017Z,11.35
2022-12-14T07:49:23.344Z,10.32
2022-12-14T07:51:53.089Z,11.05
2022-12-14T07:54:21.544Z,12.73
2022-12-14T07:56:51.227Z,10.43
2022-12-14T07:59:19.815Z,10.82
2022-12-14T08:01:48.201Z,11.17
2022-12-14T08:04:17.404Z,10.98
2022-12-14T08:06:46.846Z,10.80
2022-12-14T08:09:15.644Z,9.93
2022-12-14T08:11:43.912Z,11.90
2022-12-14T08:14:17.131Z,11.73
2022-12-14T08:16:45.843Z,11.48
2022-12-14T08:19:14.909Z,11.40
2022-12-14T08:21:43.255Z,11.45
2022-12-14T08:24:12.283Z,11.20
2022-12-14T08:26:40.963Z,11.38
2022-12-14T08:29:09.273Z,11.65
2022-12-14T08:31:39.492Z,11.33
2022-12-14T08:34:08.424Z,11.20
2022-12-14T08:36:36.781Z,11.77
2022-12-14T08:39:06.128Z,11.30
2022-12-14T08:41:34.711Z,11.40
2022-12-14T08:44:03.881Z,10.93
2022-12-14T08:46:33.368Z,12.20
2022-12-14T08:49:03.206Z,11.25
2022-12-14T08:51:31.844Z,11.98
2022-12-14T08:54:00.224Z,10.90
2022-12-14T08:56:29.234Z,11.65
2022-12-14T08:58:58.128Z,11.40
2022-12-14T09:01:32.757Z,10.90
2022-12-14T09:04:05.804Z,11.23
2022-12-14T09:06:35.049Z,12.07
2022-12-14T09:09:03.402Z,11.38
2022-12-14T09:11:31.721Z,12.00
2022-12-14T09:13:59.996Z,11.68
2022-12-14T09:16:28.371Z,11.80
2022-12-14T09:18:56.875Z,11.38
2022-12-14T09:21:26.556Z,11.68
2022-12-14T09:23:59.306Z,12.03
2022-12-14T09:26:28.339Z,12.35
2022-12-14T09:28:57.989Z,12.52
2022-12-14T09:31:27.531Z,10.98
2022-12-14T09:33:56.752Z,12.50
2022-12-14T09:36:27.361Z,11.25
2022-12-14T09:38:57.518Z,11.25
2022-12-14T09:41:32.478Z,12.00
2022-12-14T09:44:04.290Z,11.95
2022-12-14T09:46:37.204Z,11.57
2022-12-14T09:49:06.458Z,11.83
2022-12-14T09:51:37.465Z,10.60
2022-12-14T09:54:07.454Z,11.27
2022-12-14T09:56:35.973Z,10.68
2022-12-14T09:59:04.419Z,11.95
2022-12-14T10:02:13.989Z,12.80
2022-12-14T10:04:41.383Z,11.65
2022-12-14T10:07:15.032Z,12.18
2022-12-14T10:09:46.647Z,10.85
2022-12-14T10:12:22.511Z,12.20
2022-12-14T10:14:57.084Z,11.50
2022-12-14T10:17:30.979Z,12.02
2022-12-14T10:20:00.859Z,11.30
2022-12-14T10:22:32.899Z,12.40
2022-12-14T10:25:06.593Z,12.50
2022-12-14T10:28:01.074Z,11.73
2022-12-14T10:30:24.311Z,12.50
2022-12-14T10:32:53.436Z,11.55
2022-12-14T10:35:24.738Z,12.20
2022-12-14T10:37:57.702Z,11.60
2022-12-14T10:40:33.826Z,11.73
2022-12-14T10:43:12.851Z,11.40
2022-12-14T10:45:43.769Z,11.57
2022-12-14T10:48:31.011Z,11.95
2022-12-14T10:51:02.223Z,11.57
2022-12-14T10:53:40.176Z,10.65
2022-12-14T10:56:13.411Z,11.43
2022-12-14T10:58:41.743Z,11.38
2022-12-14T11:01:13.544Z,10.82
2022-12-14T11:03:43.865Z,11.10
2022-12-14T11:06:15.793Z,12.00
2022-12-14T11:08:47.905Z,11.50
2022-12-14T11:11:19.489Z,11.27
2022-12-14T11:13:51.908Z,10.98
2022-12-14T11:16:28.840Z,10.80
2022-12-14T11:19:01.672Z,10.85
2022-12-14T11:21:34.380Z,11.13
2022-12-14T11:24:03.965Z,12.23
2022-12-14T11:26:35.431Z,10.88
2022-12-14T11:29:04.859Z,11.90
2022-12-14T11:31:36.695Z,10.90
2022-12-14T11:34:05.827Z,11.48
2022-12-14T11:36:35.942Z,11.75
2022-12-14T11:39:07.351Z,10.60
2022-12-14T11:41:36.617Z,10.95
2022-12-14T11:44:06.277Z,11.10
2022-12-14T11:46:44.978Z,10.93
2022-12-14T11:49:25.018Z,11.63
2022-12-14T11:52:00.430Z,11.10
2022-12-14T11:54:30.548Z,10.90
2022-12-14T11:57:02.035Z,10.85
2022-12-14T11:59:33.227Z,10.60
2022-12-14T12:02:09.570Z,10.83
2022-12-14T12:04:44.248Z,10.70
2022-12-14T12:07:16.689Z,10.93
2022-12-14T12:09:46.404Z,11.10
2022-12-14T12:12:18.388Z,10.80
2022-12-14T12:14:47.795Z,11.32
2022-12-14T12:17:20.038Z,11.10
2022-12-14T12:19:51.416Z,11.63
2022-12-14T12:22:20.265Z,10.32
2022-12-14T12:25:24.221Z,10.60
2022-12-14T12:27:43.782Z,10.63
2022-12-14T12:30:18.110Z,9.20
2022-12-14T12:32:50.135Z,10.13
2022-12-14T12:35:20.394Z,10.40
2022-12-14T12:37:50.492Z,10.02
2022-12-14T12:40:24.008Z,9.23
2022-12-14T12:42:55.448Z,10.10
2022-12-14T12:45:26.949Z,9.57
2022-12-14T12:47:56.548Z,10.00
2022-12-14T12:50:28.070Z,10.10
2022-12-14T12:53:03.259Z,10.15
2022-12-14T12:55:36.910Z,10.23
2022-12-14T12:58:09.812Z,10.57
2022-12-14T13:00:39.798Z,10.63
2022-12-14T13:03:10.822Z,11.23
2022-12-14T13:05:46.816Z,10.70
2022-12-14T13:08:20.517Z,10.93
2022-12-14T13:13:43.556Z,10.55
2022-12-14T13:16:15.424Z,10.00
2022-12-14T13:21:35.312Z,9.25
2022-12-14T13:24:04.204Z,10.55
2022-12-14T13:26:57.600Z,10.23
2022-12-14T13:29:35.306Z,9.30
2022-12-14T13:32:08.600Z,9.73
2022-12-14T13:34:43.664Z,10.15
2022-12-14T13:37:32.855Z,9.77
2022-12-14T13:40:16.908Z,10.30
2022-12-14T13:42:52.082Z,11.02
2022-12-14T13:45:21.857Z,10.43
2022-12-14T13:47:53.932Z,10.18
2022-12-14T13:50:35.799Z,10.50
2022-12-14T13:53:06.595Z,10.57
2022-12-14T13:55:36.031Z,9.95
2022-12-14T13:58:11.038Z,9.40
2022-12-14T14:00:57.343Z,10.25
2022-12-14T14:03:44.333Z,8.95
2022-12-14T14:06:17.807Z,9.43
2022-12-14T14:08:46.955Z,9.57
2022-12-14T14:11:38.172Z,9.15
2022-12-14T14:14:17.955Z,8.95
2022-12-14T14:16:47.865Z,8.82
2022-12-14T14:19:21.527Z,9.35
2022-12-14T14:25:10.105Z,10.65
2022-12-14T14:27:39.395Z,9.65
2022-12-14T14:30:25.315Z,10.20
2022-12-14T14:33:07.652Z,8.50
2022-12-14T14:35:41.713Z,10.20
2022-12-14T14:38:13.223Z,8.95
2022-12-14T14:41:14.825Z,9.15
2022-12-14T14:43:31.823Z,9.40
2022-12-14T14:46:03.359Z,8.98
2022-12-14T14:48:34.765Z,9.15
2022-12-14T14:51:06.072Z,8.87
2022-12-14T14:53:35.739Z,9.02
2022-12-14T14:56:21.727Z,8.90
2022-12-14T14:58:50.771Z,9.48
2022-12-14T15:01:25.492Z,9.23
2022-12-14T15:03:55.707Z,9.60
2022-12-14T15:06:26.373Z,9.18
2022-12-14T15:08:58.128Z,9.25
2022-12-14T15:11:27.635Z,9.50
2022-12-14T15:13:59.363Z,9.85
2022-12-14T15:16:33.880Z,9.13
2022-12-14T15:19:20.613Z,9.23
2022-12-14T15:21:50.002Z,8.80
2022-12-14T15:24:18.123Z,9.23
2022-12-14T15:26:46.158Z,9.80
2022-12-14T15:29:19.343Z,9.52
2022-12-14T15:31:59.637Z,8.70
2022-12-14T15:34:28.716Z,8.57
2022-12-14T15:36:57.664Z,9.93
2022-12-14T15:39:38.334Z,9.87
2022-12-14T15:42:11.698Z,9.00
2022-12-14T15:44:43.784Z,9.50
2022-12-14T15:47:28.310Z,9.57
2022-12-14T15:50:01.312Z,9.60
2022-12-14T15:52:31.726Z,8.75
2022-12-14T15:55:00.849Z,9.53
2022-12-14T15:57:28.974Z,9.20
2022-12-14T15:59:58.433Z,9.95
2022-12-14T16:02:31.357Z,10.23
2022-12-14T16:05:03.411Z,10.05
2022-12-14T16:07:38.511Z,9.18
2022-12-14T16:10:15.841Z,8.83
2022-12-14T16:12:47.672Z,9.80
2022-12-14T16:15:20.621Z,9.50
2022-12-14T16:17:55.977Z,9.55
2022-12-14T16:20:31.893Z,9.80
2022-12-14T16:23:05.289Z,9.52
2022-12-14T16:25:35.960Z,9.20
2022-12-14T16:28:26.889Z,9.02
2022-12-14T16:30:57.973Z,9.65
2022-12-14T16:33:29.392Z,8.70
2022-12-14T16:36:05.154Z,9.68
2022-12-14T16:38:43.008Z,9.60
2022-12-14T16:41:11.700Z,8.88
2022-12-14T16:43:41.519Z,9.50
2022-12-14T16:46:18.686Z,10.50
2022-12-14T16:49:23.160Z,9.30
2022-12-14T16:52:09.381Z,9.85
2022-12-14T16:54:39.194Z,9.87
2022-12-14T16:57:18.640Z,9.10
2022-12-14T16:59:48.139Z,9.18
2022-12-14T17:02:31.008Z,9.15
2022-12-14T17:05:04.457Z,9.55
2022-12-14T17:07:34.194Z,9.83
2022-12-14T17:10:02.202Z,9.67
2022-12-14T17:12:30.173Z,9.50
2022-12-14T17:14:58.112Z,10.90
2022-12-14T17:17:33.205Z,10.05
2022-12-14T17:20:05.009Z,10.55
2022-12-14T17:22:34.985Z,11.38
2022-12-14T17:25:03.228Z,10.65
2022-12-14T17:27:31.293Z,10.18
2022-12-14T17:29:59.217Z,10.65
2022-12-14T17:32:30.583Z,10.32
2022-12-14T17:34:58.693Z,10.50
2022-12-14T17:37:34.118Z,9.77
2022-12-14T17:40:05.213Z,10.50
2022-12-14T17:42:33.201Z,10.30
2022-12-14T17:45:01.569Z,10.38
2022-12-14T17:47:29.505Z,10.70
2022-12-14T17:49:57.421Z,9.80
2022-12-14T17:52:30.239Z,10.68
2022-12-14T17:54:58.661Z,10.32
2022-12-14T17:57:27.682Z,10.00
2022-12-14T18:00:16.151Z,11.48
2022-12-14T18:02:45.444Z,10.30
2022-12-14T18:05:20.153Z,9.48
2022-12-14T18:07:50.299Z,9.52
2022-12-14T18:10:19.453Z,9.60
2022-12-14T18:12:47.582Z,9.20
2022-12-14T18:15:21.369Z,9.40
2022-12-14T18:17:49.776Z,9.50
2022-12-14T18:20:19.213Z,8.90
2022-12-14T18:22:49.528Z,9.30
2022-12-14T18:25:31.587Z,9.20
2022-12-14T18:27:59.830Z,8.75
2022-12-14T18:30:33.283Z,9.50
2022-12-14T18:33:04.915Z,9.63
2022-12-14T18:35:34.429Z,10.13
2022-12-14T18:38:02.469Z,9.90
2022-12-14T18:40:32.141Z,9.57
2022-12-14T18:43:00.100Z,9.10
2022-12-14T18:45:30.817Z,8.70
2022-12-14T18:47:59.140Z,8.90
2022-12-14T18:50:27.261Z,9.02
2022-12-14T18:52:56.346Z,9.25
2022-12-14T18:55:27.019Z,9.45
2022-12-14T18:57:58.504Z,8.75
2022-12-14T19:00:29.252Z,9.70
2022-12-14T19:02:59.112Z,8.00
2022-12-14T19:05:27.654Z,9.00
2022-12-14T19:07:57.260Z,8.55
2022-12-14T19:10:27.907Z,9.50
2022-12-14T19:12:58.598Z,10.30
2022-12-14T19:15:28.517Z,10.70
2022-12-14T19:17:57.333Z,10.00
2022-12-14T19:20:26.648Z,10.40
2022-12-14T19:22:54.696Z,9.90
2022-12-14T19:25:23.886Z,10.23
2022-12-14T19:30:43.968Z,9.30
2022-12-14T19:33:12.488Z,10.23
2022-12-14T19:35:42.089Z,9.80
2022-12-14T19:38:13.979Z,9.60
2022-12-14T19:40:43.010Z,9.73
2022-12-14T19:43:10.973Z,9.73
2022-12-14T19:45:41.159Z,9.40
2022-12-14T19:48:13.148Z,10.73
2022-12-14T19:50:41.629Z,10.13
2022-12-14T19:53:09.599Z,10.25
2022-12-14T19:55:37.579Z,11.00
2022-12-14T19:58:05.545Z,11.00
2022-12-14T20:00:33.587Z,11.98
2022-12-14T20:03:02.985Z,11.88
2022-12-14T20:05:31.239Z,12.38
2022-12-14T20:07:59.169Z,11.98
2022-12-14T20:10:27.234Z,13.45
2022-12-14T20:12:55.194Z,12.73
2022-12-14T20:15:23.124Z,11.80
2022-12-14T20:17:51.041Z,13.57
2022-12-14T20:20:20.364Z,13.88
2022-12-14T20:22:48.973Z,12.82
2022-12-14T20:25:17.107Z,13.27
2022-12-14T20:27:45.105Z,11.80
2022-12-14T20:30:13.715Z,12.98
2022-12-14T20:32:41.691Z,13.48
2022-12-14T20:35:11.920Z,12.00
2022-12-14T20:37:41.262Z,13.40
2022-12-14T20:40:10.893Z,13.48
2022-12-14T20:42:38.992Z,13.75
2022-12-14T20:45:08.233Z,12.60
2022-12-14T20:47:36.227Z,13.20
2022-12-14T20:50:04.676Z,12.38
2022-12-14T20:52:32.676Z,13.40
2022-12-14T20:55:01.980Z,13.10
2022-12-14T20:57:33.011Z,12.50
2022-12-14T21:00:01.105Z,13.13
2022-12-14T21:02:29.230Z,12.60
2022-12-14T21:04:57.294Z,13.45
2022-12-14T21:07:26.448Z,12.60
2022-12-14T21:09:55.292Z,13.13
2022-12-14T21:12:23.927Z,13.88
2022-12-14T21:14:53.598Z,16.13
2022-12-14T21:17:22.938Z,16.63
2022-12-14T21:19:51.236Z,15.70
2022-12-14T21:22:21.220Z,15.85
2022-12-14T21:25:06.795Z,16.05
2022-12-14T21:27:38.401Z,16.35
2022-12-14T21:30:08.360Z,16.45
2022-12-14T21:32:37.078Z,16.73
2022-12-14T21:35:05.597Z,14.90
2022-12-14T21:37:33.893Z,15.70
2022-12-14T21:40:03.888Z,15.90
2022-12-14T21:42:31.279Z,15.93
2022-12-14T21:45:00.883Z,15.48
2022-12-14T21:47:30.397Z,14.93
2022-12-14T21:49:59.018Z,14.40
2022-12-14T21:52:28.422Z,14.38
2022-12-14T21:54:58.632Z,13.80
2022-12-14T21:57:58.940Z,15.80
2022-12-14T22:00:28.542Z,15.80
2022-12-14T22:02:56.979Z,14.70
2022-12-14T22:05:25.376Z,13.70
2022-12-14T22:07:53.648Z,13.40
2022-12-14T22:10:25.122Z,13.60
2022-12-14T22:12:53.740Z,13.15
2022-12-14T22:15:22.224Z,13.30
2022-12-14T22:17:52.743Z,13.10
2022-12-14T22:20:20.984Z,13.32
2022-12-14T22:22:49.244Z,12.85
2022-12-14T22:25:17.613Z,13.00
2022-12-14T22:27:49.564Z,12.50
2022-12-14T22:30:18.393Z,11.88
2022-12-14T22:32:47.852Z,12.88
2022-12-14T22:35:18.091Z,12.68
2022-12-14T22:37:46.367Z,13.75
2022-12-14T22:40:14.726Z,12.30
2022-12-14T22:42:43.064Z,12.30
2022-12-14T22:45:11.632Z,12.23
2022-12-14T22:47:39.950Z,12.65
2022-12-14T22:50:08.715Z,11.50
2022-12-14T22:52:38.409Z,11.32
2022-12-14T22:55:07.128Z,11.75
2022-12-14T22:57:41.461Z,11.17
2022-12-14T23:00:12.127Z,13.05
2022-12-14T23:02:44.140Z,11.75
2022-12-14T23:05:15.853Z,11.17
2022-12-14T23:07:45.752Z,11.73
2022-12-14T23:10:31.824Z,11.88
2022-12-14T23:13:17.955Z,11.53
2022-12-14T23:16:04.097Z,10.98
2022-12-14T23:18:50.000Z,11.80
2022-12-14T23:21:35.973Z,11.52
2022-12-14T23:24:23.688Z,11.10
2022-12-14T23:27:10.155Z,11.10
2022-12-14T23:29:56.124Z,11.40
2022-12-14T23:32:42.282Z,11.10
2022-12-14T23:35:28.301Z,10.98
2022-12-14T23:38:14.307Z,10.70
2022-12-14T23:41:01.358Z,10.38
2022-12-14T23:43:47.387Z,11.00
2022-12-14T23:46:33.544Z,10.55
2022-12-14T23:49:19.578Z,10.35
2022-12-14T23:52:05.751Z,10.82
2022-12-14T23:54:51.685Z,9.82
2022-12-14T23:57:38.668Z,9.15
